createdAt,value
2022-10-05T00:01:35.256Z,26.70
2022-10-05T00:04:18.705Z,26.30
2022-10-05T00:06:51.929Z,21.90
2022-10-05T00:09:23.430Z,20.73
2022-10-05T00:11:50.794Z,17.65
2022-10-05T00:14:19.535Z,20.17
2022-10-05T00:16:46.990Z,20.27
2022-10-05T00:19:22.188Z,18.80
2022-10-05T00:21:49.329Z,30.77
2022-10-05T00:24:17.020Z,32.27
2022-10-05T00:26:44.593Z,30.70
2022-10-05T00:29:20.804Z,28.95
2022-10-05T00:31:48.084Z,23.63
2022-10-05T00:34:15.637Z,21.07
2022-10-05T00:36:42.880Z,22.17
2022-10-05T00:39:10.337Z,21.50
2022-10-05T00:41:40.344Z,17.83
2022-10-05T00:44:11.985Z,18.52
2022-10-05T00:46:42.875Z,16.60
2022-10-05T00:49:26.230Z,17.13
2022-10-05T00:51:58.772Z,16.50
2022-10-05T00:54:32.092Z,18.57
2022-10-05T00:57:01.998Z,23.30
2022-10-05T00:59:50.154Z,24.03
2022-10-05T01:02:46.913Z,26.07
2022-10-05T01:05:14.101Z,28.13
2022-10-05T01:07:44.319Z,23.27
2022-10-05T01:10:23.985Z,22.40
2022-10-05T01:12:57.170Z,20.93
2022-10-05T01:15:42.885Z,20.60
2022-10-05T01:18:12.996Z,20.85
2022-10-05T01:21:00.771Z,21.50
2022-10-05T01:23:46.142Z,19.70
2022-10-05T01:26:19.190Z,19.10
2022-10-05T01:28:48.028Z,19.10
2022-10-05T01:31:35.542Z,18.90
2022-10-05T01:34:11.297Z,19.83
2022-10-05T01:36:42.275Z,18.33
2022-10-05T01:39:26.776Z,17.23
2022-10-05T01:41:56.669Z,19.03
2022-10-05T01:44:31.901Z,19.07
2022-10-05T01:47:08.894Z,16.70
2022-10-05T01:49:47.852Z,13.23
2022-10-05T01:52:33.865Z,14.80
2022-10-05T01:55:19.787Z,22.63
2022-10-05T01:57:59.218Z,33.43
2022-10-05T02:00:26.358Z,33.33
2022-10-05T02:02:57.340Z,29.57
2022-10-05T02:05:34.804Z,23.50
2022-10-05T02:08:03.044Z,23.73
2022-10-05T02:10:38.410Z,24.77
2022-10-05T02:13:26.592Z,19.27
2022-10-05T02:15:55.236Z,17.83
2022-10-05T02:18:29.302Z,19.30
2022-10-05T02:20:56.530Z,20.07
2022-10-05T02:23:24.930Z,19.93
2022-10-05T02:25:52.419Z,20.33
2022-10-05T02:28:38.377Z,22.30
2022-10-05T02:31:07.947Z,23.90
2022-10-05T02:33:35.282Z,24.30
2022-10-05T02:36:03.354Z,27.27
2022-10-05T02:38:49.051Z,27.50
2022-10-05T02:41:26.205Z,26.77
2022-10-05T02:44:14.765Z,26.90
2022-10-05T02:46:50.985Z,25.43
2022-10-05T02:49:41.998Z,24.53
2022-10-05T02:52:12.181Z,24.67
2022-10-05T02:54:50.836Z,24.30
2022-10-05T02:57:22.913Z,24.87
2022-10-05T02:59:59.007Z,25.57
2022-10-05T03:02:41.439Z,28.97
2022-10-05T03:05:13.791Z,29.87
2022-10-05T03:07:40.947Z,32.17
2022-10-05T03:10:15.705Z,28.90
2022-10-05T03:12:45.903Z,33.00
2022-10-05T03:15:13.142Z,42.50
2022-10-05T03:17:49.665Z,34.10
2022-10-05T03:20:34.634Z,35.10
2022-10-05T03:23:02.229Z,33.63
2022-10-05T03:25:32.472Z,32.80
2022-10-05T03:28:17.910Z,31.77
2022-10-05T03:31:04.155Z,28.67
2022-10-05T03:33:43.189Z,29.87
2022-10-05T03:36:31.278Z,28.77
2022-10-05T03:39:28.050Z,28.10
2022-10-05T03:42:13.295Z,29.03
2022-10-05T03:45:00.737Z,27.00
2022-10-05T03:47:38.467Z,29.53
2022-10-05T03:50:17.938Z,27.10
2022-10-05T03:52:46.558Z,25.83
2022-10-05T03:55:16.836Z,29.53
2022-10-05T03:57:44.073Z,31.57
2022-10-05T04:00:37.487Z,31.43
2022-10-05T04:03:16.690Z,31.57
2022-10-05T04:05:48.361Z,33.87
2022-10-05T04:08:19.378Z,34.27
2022-10-05T04:10:47.796Z,33.20
2022-10-05T04:13:41.369Z,32.97
2022-10-05T04:16:28.282Z,30.83
2022-10-05T04:18:57.261Z,32.73
2022-10-05T04:21:35.418Z,32.17
2022-10-05T04:24:10.984Z,32.43
2022-10-05T04:26:39.433Z,31.10
2022-10-05T04:29:25.004Z,31.77
2022-10-05T04:32:09.442Z,31.00
2022-10-05T04:34:55.498Z,30.37
2022-10-05T04:37:24.712Z,26.77
2022-10-05T04:40:02.297Z,26.07
2022-10-05T04:42:37.420Z,18.47
2022-10-05T04:45:13.666Z,13.17
2022-10-05T04:48:01.826Z,14.53
2022-10-05T04:50:32.121Z,16.27
2022-10-05T04:53:28.905Z,21.00
2022-10-05T04:56:03.193Z,36.17
2022-10-05T04:58:40.131Z,35.40
2022-10-05T05:01:28.175Z,38.23
2022-10-05T05:04:02.171Z,36.30
2022-10-05T05:06:32.415Z,32.93
2022-10-05T05:09:05.523Z,34.27
2022-10-05T05:11:45.219Z,35.17
2022-10-05T05:14:21.462Z,34.60
2022-10-05T05:17:13.006Z,35.27
2022-10-05T05:19:43.581Z,31.30
2022-10-05T05:22:16.822Z,34.67
2022-10-05T05:24:44.028Z,30.97
2022-10-05T05:27:40.666Z,31.53
2022-10-05T05:30:13.605Z,28.93
2022-10-05T05:32:52.735Z,31.90
2022-10-05T05:35:19.874Z,34.17
2022-10-05T05:38:06.366Z,35.10
2022-10-05T05:40:34.584Z,36.20
2022-10-05T05:43:10.714Z,37.47
2022-10-05T05:45:45.126Z,44.23
2022-10-05T05:48:24.667Z,45.10
2022-10-05T05:50:54.616Z,44.70
2022-10-05T05:53:22.415Z,44.00
2022-10-05T05:55:50.938Z,43.43
2022-10-05T05:58:18.078Z,41.30
2022-10-05T06:00:46.730Z,54.80
2022-10-05T06:03:16.347Z,49.47
2022-10-05T06:05:54.674Z,47.47
2022-10-05T06:08:40.278Z,38.57
2022-10-05T06:11:21.570Z,40.23
2022-10-05T06:13:49.087Z,37.17
2022-10-05T06:16:24.178Z,35.23
2022-10-05T06:19:05.295Z,39.40
2022-10-05T06:21:32.426Z,38.50
2022-10-05T06:24:01.228Z,39.47
2022-10-05T06:26:46.897Z,39.73
2022-10-05T06:29:23.950Z,35.83
2022-10-05T06:32:11.411Z,39.97
2022-10-05T06:34:41.455Z,37.70
2022-10-05T06:37:12.798Z,39.90
2022-10-05T06:39:43.067Z,46.17
2022-10-05T06:42:28.955Z,51.03
2022-10-05T06:45:11.388Z,38.60
2022-10-05T06:48:12.077Z,43.00
2022-10-05T06:50:48.152Z,41.95
2022-10-05T06:54:03.245Z,37.65
2022-10-05T06:57:20.528Z,25.50
2022-10-05T07:03:21.013Z,47.13
2022-10-05T07:09:05.957Z,51.67
2022-10-05T07:19:22.651Z,40.85
2022-10-05T07:25:32.851Z,38.90
2022-10-05T07:28:51.116Z,37.97
2022-10-05T07:31:50.713Z,37.22
2022-10-05T07:34:48.165Z,33.58
2022-10-05T07:37:55.361Z,32.72
2022-10-05T07:44:12.403Z,24.08
2022-10-05T07:47:04.578Z,21.40
2022-10-05T08:03:42.667Z,9.98
2022-10-05T09:04:02.283Z,3.60
2022-10-05T09:10:26.955Z,2.80
2022-10-05T10:40:09.023Z,2.40
2022-10-05T10:45:47.997Z,2.58
2022-10-05T11:31:10.552Z,2.60
2022-10-05T11:37:57.791Z,2.60
2022-10-05T11:56:33.206Z,3.55
2022-10-05T11:59:13.101Z,3.80
2022-10-05T12:02:21.838Z,3.30
2022-10-05T12:05:26.995Z,2.67
2022-10-05T12:08:24.508Z,2.65
2022-10-05T12:11:28.477Z,2.65
2022-10-05T12:14:15.986Z,2.83
2022-10-05T12:18:05.056Z,3.15
2022-10-05T12:20:32.357Z,2.75
2022-10-05T12:23:54.253Z,3.10
2022-10-05T12:29:58.052Z,3.40
2022-10-05T12:33:04.495Z,2.80
2022-10-05T12:35:54.315Z,3.00
2022-10-05T12:38:41.524Z,2.58
2022-10-05T12:45:08.103Z,2.78
2022-10-05T12:51:49.271Z,2.75
2022-10-05T13:42:12.348Z,2.72
2022-10-05T14:32:01.296Z,2.70
2022-10-05T15:02:56.891Z,3.58
2022-10-05T15:19:05.428Z,5.60
2022-10-05T15:32:22.357Z,12.45
2022-10-05T15:39:09.831Z,15.68
2022-10-05T15:42:42.793Z,14.50
2022-10-05T15:52:25.195Z,14.07
2022-10-05T16:13:03.011Z,23.33
2022-10-05T16:16:33.639Z,26.48
2022-10-05T16:22:51.599Z,16.75
2022-10-05T16:26:01.457Z,19.80
2022-10-05T16:28:50.506Z,41.90
2022-10-05T16:31:38.429Z,25.52
2022-10-05T16:34:17.304Z,30.63
2022-10-05T16:36:53.533Z,39.03
2022-10-05T16:39:38.525Z,47.75
2022-10-05T16:42:17.831Z,49.05
2022-10-05T16:44:54.362Z,86.90
2022-10-05T16:47:29.869Z,46.58
2022-10-05T16:50:00.302Z,17.65
2022-10-05T16:52:28.019Z,20.83
2022-10-05T16:54:57.119Z,38.65
2022-10-05T16:57:31.583Z,27.15
2022-10-05T17:00:01.617Z,10.55
2022-10-05T17:03:04.147Z,6.57
2022-10-05T17:05:51.313Z,5.40
2022-10-05T17:08:29.521Z,4.70
2022-10-05T17:11:17.188Z,4.72
2022-10-05T17:13:47.347Z,4.93
2022-10-05T17:16:19.361Z,4.65
2022-10-05T17:18:58.427Z,4.32
2022-10-05T17:21:34.791Z,86.38
2022-10-05T17:24:06.422Z,4.72
2022-10-05T17:26:39.757Z,5.15
2022-10-05T17:29:30.077Z,6.00
2022-10-05T17:32:15.734Z,15.85
2022-10-05T17:35:11.234Z,30.08
2022-10-05T17:37:40.646Z,37.95
2022-10-05T17:40:28.575Z,58.40
2022-10-05T17:43:01.140Z,45.65
2022-10-05T17:45:34.485Z,36.75
2022-10-05T17:48:03.081Z,36.85
2022-10-05T17:50:58.854Z,51.97
2022-10-05T17:53:53.677Z,60.58
2022-10-05T17:56:21.732Z,58.10
2022-10-05T17:58:54.583Z,54.50
2022-10-05T18:01:30.392Z,50.35
2022-10-05T18:04:12.926Z,54.97
2022-10-05T18:06:41.686Z,52.47
2022-10-05T18:09:11.862Z,50.80
2022-10-05T18:11:39.525Z,49.80
2022-10-05T18:14:24.710Z,53.90
2022-10-05T18:17:04.983Z,49.10
2022-10-05T18:19:33.269Z,45.67
2022-10-05T18:22:05.835Z,44.83
2022-10-05T18:24:42.235Z,48.65
2022-10-05T18:27:16.760Z,57.97
2022-10-05T18:30:05.658Z,42.85
2022-10-05T18:32:32.940Z,38.10
2022-10-05T18:35:11.366Z,87.53
2022-10-05T18:37:57.233Z,30.05
2022-10-05T18:40:40.167Z,24.42
2022-10-05T18:43:17.193Z,29.35
2022-10-05T18:45:51.461Z,28.75
2022-10-05T18:48:24.868Z,16.58
2022-10-05T18:51:03.578Z,9.10
2022-10-05T18:53:33.193Z,10.80
2022-10-05T18:56:19.205Z,23.88
2022-10-05T18:58:53.217Z,23.67
2022-10-05T19:01:29.151Z,26.60
2022-10-05T19:04:00.831Z,23.13
2022-10-05T19:06:30.080Z,26.48
2022-10-05T19:09:15.736Z,20.55
2022-10-05T19:11:51.415Z,21.48
2022-10-05T19:14:21.614Z,8.90
2022-10-05T19:17:01.031Z,6.43
2022-10-05T19:20:00.406Z,5.53
2022-10-05T19:22:33.548Z,4.35
2022-10-05T19:25:05.329Z,9.02
2022-10-05T19:27:40.416Z,27.38
2022-10-05T19:30:34.093Z,34.15
2022-10-05T19:33:05.073Z,36.58
2022-10-05T19:35:40.472Z,33.65
2022-10-05T19:38:15.162Z,31.92
2022-10-05T19:40:46.405Z,35.17
2022-10-05T19:43:18.925Z,34.38
2022-10-05T19:45:58.684Z,36.80
2022-10-05T19:48:27.598Z,35.45
2022-10-05T19:51:01.303Z,37.75
2022-10-05T19:53:32.128Z,14.93
2022-10-05T19:56:11.104Z,26.73
2022-10-05T19:58:39.789Z,24.65
2022-10-05T20:01:07.144Z,19.75
2022-10-05T20:03:37.296Z,31.77
2022-10-05T20:06:13.606Z,29.58
2022-10-05T20:08:44.841Z,32.22
2022-10-05T20:11:13.106Z,29.52
2022-10-05T20:13:45.730Z,35.30
2022-10-05T20:16:34.396Z,35.88
2022-10-05T20:19:40.123Z,35.88
2022-10-05T20:22:25.633Z,33.70
2022-10-05T20:24:53.616Z,28.92
2022-10-05T20:27:39.432Z,29.02
2022-10-05T20:30:07.057Z,24.65
2022-10-05T20:32:34.332Z,25.00
2022-10-05T20:35:01.470Z,22.30
2022-10-05T20:37:28.669Z,20.83
2022-10-05T20:39:55.840Z,19.85
2022-10-05T20:42:23.847Z,25.88
2022-10-05T20:44:56.495Z,28.10
2022-10-05T20:47:24.179Z,29.98
2022-10-05T20:49:53.430Z,29.38
2022-10-05T20:52:20.828Z,29.23
2022-10-05T20:54:48.108Z,30.73
2022-10-05T20:57:15.292Z,31.83
2022-10-05T20:59:42.521Z,33.67
2022-10-05T21:02:35.020Z,28.20
2022-10-05T21:05:04.639Z,24.38
2022-10-05T21:07:34.083Z,22.33
2022-10-05T21:10:02.367Z,22.90
2022-10-05T21:12:29.584Z,27.77
2022-10-05T21:14:56.720Z,23.17
2022-10-05T21:17:23.850Z,28.83
2022-10-05T21:19:52.608Z,20.67
2022-10-05T21:22:19.757Z,18.92
2022-10-05T21:24:46.946Z,21.08
2022-10-05T21:27:14.111Z,20.17
2022-10-05T21:29:41.471Z,21.35
2022-10-05T21:32:11.573Z,21.85
2022-10-05T21:34:39.461Z,21.83
2022-10-05T21:37:06.833Z,21.48
2022-10-05T21:39:35.159Z,20.00
2022-10-05T21:42:02.382Z,21.85
2022-10-05T21:44:29.534Z,23.13
2022-10-05T21:46:56.825Z,23.13
2022-10-05T21:49:24.236Z,25.90
2022-10-05T21:51:51.401Z,24.40
2022-10-05T21:54:19.238Z,25.95
2022-10-05T21:56:47.416Z,28.92
2022-10-05T21:59:15.693Z,27.58
2022-10-05T22:01:42.869Z,25.48
2022-10-05T22:04:10.086Z,25.55
2022-10-05T22:06:37.315Z,22.13
2022-10-05T22:09:04.702Z,21.33
2022-10-05T22:11:32.047Z,21.73
2022-10-05T22:14:02.703Z,21.77
2022-10-05T22:16:33.775Z,19.98
2022-10-05T22:19:08.267Z,21.38
2022-10-05T22:21:41.368Z,20.65
2022-10-05T22:24:08.967Z,19.20
2022-10-05T22:26:36.174Z,20.02
2022-10-05T22:29:03.403Z,24.40
2022-10-05T22:31:30.628Z,22.38
2022-10-05T22:33:57.866Z,22.83
2022-10-05T22:36:25.031Z,22.55
2022-10-05T22:38:52.309Z,22.33
2022-10-05T22:41:19.481Z,21.52
2022-10-05T22:43:50.846Z,22.60
2022-10-05T22:46:18.105Z,22.38
2022-10-05T22:48:45.321Z,22.00
2022-10-05T22:51:12.529Z,22.05
2022-10-05T22:53:39.659Z,22.27
2022-10-05T22:56:10.674Z,21.67
2022-10-05T22:58:37.887Z,21.33
2022-10-05T23:01:05.665Z,22.33
2022-10-05T23:03:33.003Z,22.17
2022-10-05T23:06:03.002Z,23.27
2022-10-05T23:08:31.394Z,20.33
2022-10-05T23:11:05.458Z,21.83
2022-10-05T23:13:33.330Z,21.55
2022-10-05T23:16:05.934Z,20.65
2022-10-05T23:18:33.830Z,21.35
2022-10-05T23:21:00.941Z,22.92
2022-10-05T23:23:28.116Z,22.70
2022-10-05T23:26:04.078Z,25.60
2022-10-05T23:28:31.855Z,23.15
2022-10-05T23:31:00.217Z,28.10
2022-10-05T23:33:27.594Z,27.10
2022-10-05T23:36:03.579Z,23.80
2022-10-05T23:38:31.268Z,23.60
2022-10-05T23:40:58.900Z,27.27
2022-10-05T23:43:26.850Z,27.80
2022-10-05T23:45:55.006Z,24.52
2022-10-05T23:48:22.276Z,23.33
2022-10-05T23:50:49.846Z,20.88
2022-10-05T23:53:17.176Z,21.98
2022-10-05T23:55:44.399Z,22.10
2022-10-05T23:58:11.639Z,22.27
